Time;durP1;ratioP1;P1;durP2;ratioP2;P2;SDS_P1;SDS_P2;PMS_P1;PMS_P2;Temp;Humidity;BMP_temperature;BMP_pressure;BME280_temperature;BME280_humidity;BME280_pressure;Samples;Min_cycle;Max_cycle;Signal;HPM_P1;HPM_P2
2023/11/04 00:02:04;;;;;;;11.10;4.30;;;4.30;99.90;;;;;;4913369;28;20196;-66
2023/11/04 00:04:30;;;;;;;14.33;3.90;;;4.30;99.90;;;;;;4913065;28;20212;-66
2023/11/04 00:06:56;;;;;;;9.20;3.40;;;4.40;99.90;;;;;;4913355;28;20693;-66
2023/11/04 00:09:22;;;;;;;6.97;3.30;;;4.40;99.90;;;;;;4913173;28;20207;-66
2023/11/04 00:11:47;;;;;;;9.03;3.43;;;4.50;99.90;;;;;;4912963;28;20723;-66
2023/11/04 00:14:13;;;;;;;10.03;3.07;;;4.50;99.90;;;;;;4912285;28;20180;-66
2023/11/04 00:16:39;;;;;;;9.83;2.50;;;4.60;99.90;;;;;;4913239;28;20192;-64
2023/11/04 00:19:04;;;;;;;13.20;2.53;;;4.70;99.90;;;;;;4913253;28;20640;-66
2023/11/04 00:21:30;;;;;;;10.73;2.80;;;4.70;99.90;;;;;;4913012;28;20195;-63
2023/11/04 00:23:55;;;;;;;11.40;2.80;;;4.70;99.90;;;;;;4912838;28;20254;-66
2023/11/04 00:26:21;;;;;;;7.60;2.90;;;4.80;99.90;;;;;;4912929;28;20180;-65
2023/11/04 00:28:46;;;;;;;16.67;3.60;;;4.80;99.90;;;;;;4912995;28;20184;-66
2023/11/04 00:31:12;;;;;;;11.27;3.30;;;4.80;99.90;;;;;;4912956;28;20598;-66
2023/11/04 00:33:38;;;;;;;10.13;2.60;;;4.90;99.90;;;;;;4912504;28;20188;-66
2023/11/04 00:36:04;;;;;;;12.23;2.60;;;5.00;99.90;;;;;;4907074;28;20180;-66
2023/11/04 00:38:29;;;;;;;11.47;2.67;;;5.10;99.90;;;;;;4910911;28;20270;-66
2023/11/04 00:40:55;;;;;;;8.80;2.90;;;5.10;99.90;;;;;;4912798;28;20283;-66
2023/11/04 00:43:21;;;;;;;10.63;2.67;;;5.20;99.90;;;;;;4912461;28;20595;-67
2023/11/04 00:45:46;;;;;;;9.47;2.33;;;5.30;99.90;;;;;;4912601;28;20293;-65
2023/11/04 00:48:12;;;;;;;9.40;2.80;;;5.30;99.90;;;;;;4912557;28;20192;-65
2023/11/04 00:50:37;;;;;;;11.23;3.20;;;5.40;99.90;;;;;;4912505;28;20737;-65
2023/11/04 00:53:04;;;;;;;9.00;2.53;;;5.40;99.90;;;;;;4912930;28;20187;-66
2023/11/04 00:55:30;;;;;;;11.00;2.40;;;5.40;99.90;;;;;;4912275;28;20697;-65
2023/11/04 00:57:55;;;;;;;7.63;2.30;;;5.40;99.90;;;;;;4912530;28;20176;-67
2023/11/04 01:00:25;;;;;;;10.97;3.40;;;5.50;99.90;;;;;;4912267;28;20768;-66
2023/11/04 01:02:55;;;;;;;12.87;2.67;;;5.50;99.90;;;;;;4912719;28;20748;-65
2023/11/04 01:05:22;;;;;;;9.73;2.40;;;5.50;99.90;;;;;;4912187;28;20195;-67
2023/11/04 01:07:48;;;;;;;6.83;2.40;;;5.50;99.90;;;;;;4912524;28;20184;-67
2023/11/04 01:10:14;;;;;;;7.13;2.20;;;5.60;99.90;;;;;;4912271;28;20258;-66
2023/11/04 01:12:40;;;;;;;7.37;2.53;;;5.60;99.90;;;;;;4912615;28;20188;-65
2023/11/04 01:15:06;;;;;;;8.10;2.43;;;5.60;99.90;;;;;;4912531;28;20188;-66
2023/11/04 01:17:32;;;;;;;8.17;2.30;;;5.70;99.90;;;;;;4912506;28;20271;-64
2023/11/04 01:19:57;;;;;;;7.10;2.30;;;5.80;99.90;;;;;;4912430;28;20664;-66
2023/11/04 01:22:23;;;;;;;6.87;2.60;;;5.70;99.90;;;;;;4912227;28;20195;-66
2023/11/04 01:24:48;;;;;;;6.40;2.23;;;5.80;99.90;;;;;;4911775;28;20204;-65
2023/11/04 01:27:14;;;;;;;8.70;2.40;;;5.80;99.90;;;;;;4912286;28;20277;-66
2023/11/04 01:29:39;;;;;;;10.50;2.83;;;5.90;99.90;;;;;;4912314;28;20217;-66
2023/11/04 01:32:06;;;;;;;9.70;2.50;;;5.90;99.90;;;;;;4912290;28;20665;-64
2023/11/04 01:34:31;;;;;;;11.87;2.60;;;5.90;99.90;;;;;;4911683;28;20193;-66
2023/11/04 01:36:57;;;;;;;4.20;1.70;;;5.90;99.90;;;;;;4912107;28;20183;-66
2023/11/04 01:39:22;;;;;;;11.80;2.90;;;6.00;99.90;;;;;;4911804;28;20215;-66
2023/11/04 01:41:48;;;;;;;7.60;2.07;;;6.10;99.90;;;;;;4911882;28;20218;-66
2023/11/04 01:44:14;;;;;;;9.23;2.37;;;6.10;99.90;;;;;;4911628;28;20215;-66
2023/11/04 01:46:41;;;;;;;10.27;2.53;;;6.10;99.90;;;;;;4911838;28;20188;-65
2023/11/04 01:49:08;;;;;;;8.93;2.20;;;6.10;99.90;;;;;;4911676;28;20227;-65
2023/11/04 01:51:35;;;;;;;7.93;2.37;;;6.20;99.90;;;;;;4911742;28;20565;-66
2023/11/04 01:54:02;;;;;;;10.13;2.43;;;6.20;99.90;;;;;;4911562;28;20184;-66
2023/11/04 01:56:34;;;;;;;4.10;2.03;;;6.10;99.90;;;;;;4911900;28;20347;-66
2023/11/04 01:59:02;;;;;;;7.57;2.30;;;6.20;99.90;;;;;;4911750;28;20203;-65
2023/11/04 02:01:28;;;;;;;6.23;2.10;;;6.30;99.90;;;;;;4911576;28;20283;-65
2023/11/04 02:03:53;;;;;;;7.17;2.07;;;6.30;99.90;;;;;;4911341;28;20803;-65
2023/11/04 02:06:20;;;;;;;4.27;1.93;;;6.30;99.90;;;;;;4911649;28;20180;-65
2023/11/04 02:08:46;;;;;;;3.57;1.70;;;6.30;99.90;;;;;;4911497;28;20180;-66
2023/11/04 02:11:11;;;;;;;7.83;1.73;;;6.40;99.90;;;;;;4911576;28;20581;-65
2023/11/04 02:13:37;;;;;;;5.13;1.53;;;6.50;99.90;;;;;;4911141;28;20195;-66
2023/11/04 02:16:04;;;;;;;4.00;1.60;;;6.40;99.90;;;;;;4911685;28;20215;-66
2023/11/04 02:18:30;;;;;;;5.57;1.77;;;6.50;99.90;;;;;;4911318;28;20267;-66
2023/11/04 02:20:59;;;;;;;6.90;1.73;;;6.60;99.90;;;;;;4911469;28;20379;-66
2023/11/04 02:23:26;;;;;;;5.03;1.50;;;6.60;99.90;;;;;;4911086;28;20575;-66
2023/11/04 02:25:52;;;;;;;8.60;2.57;;;6.60;99.90;;;;;;4911497;28;20186;-66
2023/11/04 02:28:18;;;;;;;5.13;1.80;;;6.60;99.90;;;;;;4911579;28;20535;-66
2023/11/04 02:30:44;;;;;;;11.63;1.80;;;6.60;99.90;;;;;;4911234;28;20607;-65
2023/11/04 02:33:09;;;;;;;5.27;2.07;;;6.70;99.90;;;;;;4911113;28;20274;-64
2023/11/04 02:35:35;;;;;;;8.20;2.00;;;6.70;99.90;;;;;;4911403;28;20179;-65
2023/11/04 02:38:01;;;;;;;6.07;2.00;;;6.70;99.90;;;;;;4914835;28;20258;-66
2023/11/04 02:40:27;;;;;;;8.30;2.97;;;6.70;99.90;;;;;;4914352;28;20763;-66
2023/11/04 02:42:53;;;;;;;3.90;1.70;;;6.80;99.90;;;;;;4914514;28;20180;-66
2023/11/04 02:45:18;;;;;;;7.03;1.50;;;6.70;99.90;;;;;;4914242;28;20585;-67
2023/11/04 02:47:44;;;;;;;2.93;1.53;;;6.70;99.90;;;;;;4914355;28;20196;-66
2023/11/04 02:50:10;;;;;;;5.67;1.63;;;6.80;99.90;;;;;;4914364;28;20250;-66
2023/11/04 02:52:36;;;;;;;5.70;1.70;;;6.80;99.90;;;;;;4914256;28;20186;-65
2023/11/04 02:55:01;;;;;;;12.93;1.67;;;6.80;99.90;;;;;;4914453;28;20184;-65
2023/11/04 02:57:27;;;;;;;5.97;1.40;;;6.70;99.90;;;;;;4914371;28;20184;-66
2023/11/04 02:59:53;;;;;;;6.93;2.03;;;6.60;99.90;;;;;;4914333;28;20204;-67
2023/11/04 03:02:19;;;;;;;14.13;1.70;;;6.60;99.90;;;;;;4906549;28;20657;-66
2023/11/04 03:04:44;;;;;;;4.03;1.13;;;6.60;99.90;;;;;;4912500;28;20203;-66
2023/11/04 03:07:10;;;;;;;2.13;1.10;;;6.50;99.90;;;;;;4914461;28;20330;-65
2023/11/04 03:09:36;;;;;;;8.60;1.87;;;6.40;99.90;;;;;;4914068;28;20681;-66
2023/11/04 03:12:01;;;;;;;7.73;2.00;;;6.50;99.90;;;;;;4914159;28;20195;-67
2023/11/04 03:14:27;;;;;;;7.50;1.67;;;6.50;99.90;;;;;;4913952;28;20611;-67
2023/11/04 03:16:53;;;;;;;3.87;1.57;;;6.50;99.90;;;;;;4914154;28;20196;-66
2023/11/04 03:19:18;;;;;;;2.37;1.40;;;6.50;99.90;;;;;;4913902;28;20591;-65
2023/11/04 03:21:44;;;;;;;2.50;1.40;;;6.50;99.90;;;;;;4913823;28;20180;-66
2023/11/04 03:24:11;;;;;;;2.63;1.40;;;6.50;99.90;;;;;;4913582;28;20724;-64
2023/11/04 03:26:36;;;;;;;2.90;1.20;;;6.50;99.90;;;;;;4914045;28;20180;-65
2023/11/04 03:29:02;;;;;;;4.37;1.40;;;6.60;99.90;;;;;;4913924;28;20202;-66
2023/11/04 03:31:27;;;;;;;4.70;1.50;;;6.60;99.90;;;;;;4913735;28;20187;-66
2023/11/04 03:33:53;;;;;;;6.43;1.30;;;6.60;99.90;;;;;;4913462;28;20188;-65
2023/11/04 03:36:18;;;;;;;3.13;1.60;;;6.70;99.90;;;;;;4913727;28;20242;-65
2023/11/04 03:38:45;;;;;;;6.13;1.43;;;6.70;99.90;;;;;;4913694;28;20278;-65
2023/11/04 03:41:11;;;;;;;3.67;1.20;;;6.80;99.90;;;;;;4913851;28;20275;-65
2023/11/04 03:43:36;;;;;;;3.73;1.03;;;6.80;99.90;;;;;;4913237;28;20291;-67
2023/11/04 03:46:03;;;;;;;5.80;1.50;;;6.80;99.90;;;;;;4913617;28;20195;-65
2023/11/04 03:48:29;;;;;;;2.77;1.53;;;6.80;99.90;;;;;;4912374;28;20653;-65
2023/11/04 03:50:54;;;;;;;5.13;1.60;;;6.70;99.90;;;;;;4913555;28;20211;-66
2023/11/04 03:53:20;;;;;;;1.60;1.20;;;6.70;99.90;;;;;;4913713;28;20219;-66
2023/11/04 03:55:46;;;;;;;4.80;1.37;;;6.60;99.90;;;;;;4913428;28;20183;-65
2023/11/04 03:58:12;;;;;;;2.90;1.27;;;6.80;99.90;;;;;;4913843;28;20195;-66
2023/11/04 04:00:37;;;;;;;2.70;1.43;;;6.90;99.90;;;;;;4913252;28;20219;-66
2023/11/04 04:03:04;;;;;;;3.73;1.67;;;6.90;99.90;;;;;;4913336;28;20234;-65
2023/11/04 04:05:31;;;;;;;5.10;1.33;;;6.90;99.90;;;;;;4905202;28;20192;-66
2023/11/04 04:07:57;;;;;;;1.50;1.20;;;6.90;99.90;;;;;;4908786;28;20180;-66
2023/11/04 04:10:23;;;;;;;4.10;1.50;;;6.90;99.90;;;;;;4910055;28;20695;-67
2023/11/04 04:12:49;;;;;;;2.17;1.40;;;7.00;99.90;;;;;;4913360;28;20180;-67
2023/11/04 04:15:15;;;;;;;1.63;1.20;;;6.90;99.90;;;;;;4911714;28;20195;-65
2023/11/04 04:17:42;;;;;;;2.30;1.13;;;6.90;99.90;;;;;;4946190;28;20328;-66
2023/11/04 04:20:08;;;;;;;2.07;1.13;;;7.00;99.90;;;;;;4913179;28;20287;-64
2023/11/04 04:22:33;;;;;;;5.07;1.50;;;7.00;99.90;;;;;;4913081;28;20204;-65
2023/11/04 04:24:59;;;;;;;1.90;1.33;;;7.00;99.90;;;;;;4913058;28;20208;-66
2023/11/04 04:27:24;;;;;;;4.23;1.40;;;7.00;99.90;;;;;;4911679;28;20190;-66
2023/11/04 04:29:50;;;;;;;3.73;1.30;;;7.10;99.90;;;;;;4912918;28;20242;-67
2023/11/04 04:32:15;;;;;;;3.03;1.47;;;7.10;99.90;;;;;;4911630;28;20210;-66
2023/11/04 04:34:41;;;;;;;7.30;1.60;;;7.00;99.90;;;;;;4912673;28;20191;-66
2023/11/04 04:37:07;;;;;;;1.90;1.30;;;7.00;99.90;;;;;;4912923;28;20188;-66
2023/11/04 04:39:33;;;;;;;3.73;1.47;;;7.10;99.90;;;;;;4912598;28;20311;-67
2023/11/04 04:41:58;;;;;;;5.63;1.87;;;7.00;99.90;;;;;;4912806;28;20220;-66
2023/11/04 04:44:24;;;;;;;2.77;1.60;;;7.00;99.90;;;;;;4912464;28;20310;-66
2023/11/04 04:46:49;;;;;;;23.67;5.40;;;7.00;99.90;;;;;;4909145;28;20200;-66
2023/11/04 04:49:15;;;;;;;4.63;2.13;;;7.00;99.90;;;;;;4908507;28;20292;-66
2023/11/04 04:51:41;;;;;;;7.00;2.17;;;7.10;99.90;;;;;;4912639;28;20192;-67
2023/11/04 04:54:07;;;;;;;2.93;1.53;;;7.10;99.90;;;;;;4912451;28;20188;-67
2023/11/04 04:56:33;;;;;;;4.70;1.73;;;7.20;99.90;;;;;;4912913;28;20314;-66
2023/11/04 04:58:59;;;;;;;8.17;1.70;;;7.20;99.90;;;;;;4912141;28;20298;-67
2023/11/04 05:01:24;;;;;;;5.03;1.63;;;7.10;99.90;;;;;;4912266;28;20656;-66
2023/11/04 05:03:50;;;;;;;2.97;1.60;;;7.10;99.90;;;;;;4912183;28;20438;-65
2023/11/04 05:06:16;;;;;;;2.07;1.60;;;7.10;99.90;;;;;;4912486;28;20194;-65
2023/11/04 05:08:42;;;;;;;3.37;1.40;;;7.10;99.90;;;;;;4912520;28;20459;-67
2023/11/04 05:11:08;;;;;;;4.43;1.87;;;7.10;99.90;;;;;;4904622;28;20188;-66
2023/11/04 05:13:35;;;;;;;3.50;1.70;;;7.10;99.90;;;;;;4912016;28;20196;-67
2023/11/04 05:16:00;;;;;;;3.70;1.80;;;7.20;99.90;;;;;;4912477;28;20191;-66
2023/11/04 05:18:26;;;;;;;3.60;1.77;;;7.30;99.90;;;;;;4913725;28;20766;-66
2023/11/04 05:20:52;;;;;;;2.77;1.80;;;7.30;99.90;;;;;;4912572;28;20243;-65
2023/11/04 05:23:18;;;;;;;2.60;1.70;;;7.30;99.90;;;;;;4912044;28;20563;-67
2023/11/04 05:25:44;;;;;;;15.63;4.67;;;7.20;99.90;;;;;;4911984;28;20259;-66
2023/11/04 05:28:10;;;;;;;6.57;2.00;;;7.20;99.90;;;;;;4912176;28;20275;-66
2023/11/04 05:30:36;;;;;;;6.03;2.00;;;7.20;99.90;;;;;;4911947;28;20250;-66
2023/11/04 05:33:02;;;;;;;3.10;1.80;;;7.20;99.90;;;;;;4912176;28;20687;-66
2023/11/04 05:35:28;;;;;;;6.83;2.13;;;7.20;99.90;;;;;;4911812;28;20196;-65
2023/11/04 05:37:53;;;;;;;6.37;2.30;;;7.30;99.90;;;;;;4912153;28;20676;-66
2023/11/04 05:40:19;;;;;;;3.83;1.80;;;7.30;99.90;;;;;;4911867;28;20611;-66
2023/11/04 05:42:45;;;;;;;4.33;2.20;;;7.30;99.90;;;;;;4908893;28;20231;-65
2023/11/04 05:45:14;;;;;;;7.50;2.00;;;7.30;99.90;;;;;;4906751;28;20568;-65
2023/11/04 05:47:49;;;;;;;2.17;1.53;;;7.30;99.90;;;;;;4911751;28;21311;-66
2023/11/04 05:50:14;;;;;;;1.90;1.50;;;7.30;99.90;;;;;;4911810;28;20608;-66
2023/11/04 05:52:42;;;;;;;2.27;1.57;;;7.20;99.90;;;;;;4944666;28;20272;-66
2023/11/04 05:55:09;;;;;;;13.13;6.07;;;7.20;99.90;;;;;;4911593;28;20199;-66
2023/11/04 05:57:34;;;;;;;5.90;2.27;;;7.20;99.90;;;;;;4911633;28;20287;-65
2023/11/04 06:00:06;;;;;;;4.80;2.70;;;7.10;99.90;;;;;;4911380;28;20298;-67
2023/11/04 06:02:31;;;;;;;3.63;2.03;;;7.10;99.90;;;;;;4911686;28;20200;-65
2023/11/04 06:04:57;;;;;;;4.63;1.97;;;7.20;99.90;;;;;;4911348;28;20295;-67
2023/11/04 06:07:23;;;;;;;2.20;1.60;;;7.10;99.90;;;;;;4911501;28;20722;-65
2023/11/04 06:09:49;;;;;;;2.60;1.70;;;7.10;99.90;;;;;;4911142;28;20283;-66
2023/11/04 06:12:14;;;;;;;4.57;2.40;;;7.20;99.90;;;;;;4911001;28;20254;-67
2023/11/04 06:14:40;;;;;;;7.07;2.77;;;7.20;99.90;;;;;;4908938;28;20755;-66
2023/11/04 06:17:06;;;;;;;4.77;2.20;;;7.20;99.90;;;;;;4906136;28;20274;-64
2023/11/04 06:19:32;;;;;;;4.63;2.50;;;7.20;99.90;;;;;;4911066;28;20212;-64
2023/11/04 06:21:57;;;;;;;2.93;1.93;;;7.20;99.90;;;;;;4911559;28;20214;-66
2023/11/04 06:24:23;;;;;;;3.13;1.73;;;7.20;99.90;;;;;;4911034;28;20235;-64
2023/11/04 06:26:48;;;;;;;4.70;1.80;;;7.20;99.90;;;;;;4911286;28;20195;-66
2023/11/04 06:29:16;;;;;;;4.37;2.17;;;7.20;99.90;;;;;;4911226;28;20215;-65
2023/11/04 06:31:42;;;;;;;6.73;2.10;;;7.20;99.90;;;;;;4911363;28;20521;-66
2023/11/04 06:34:07;;;;;;;4.40;1.80;;;7.20;99.90;;;;;;4910987;28;20203;-65
2023/11/04 06:36:33;;;;;;;6.00;1.70;;;7.20;99.90;;;;;;4911155;28;20188;-66
2023/11/04 06:38:59;;;;;;;4.40;2.73;;;7.20;99.90;;;;;;4911267;28;20208;-66
2023/11/04 06:41:24;;;;;;;4.77;2.10;;;7.20;99.90;;;;;;4894101;28;20188;-66
2023/11/04 06:43:51;;;;;;;3.23;1.90;;;7.20;99.90;;;;;;4909907;28;20267;-65
2023/11/04 06:46:17;;;;;;;3.57;2.30;;;7.30;99.90;;;;;;4910110;28;20669;-66
2023/11/04 06:48:43;;;;;;;5.17;1.90;;;7.20;99.90;;;;;;4910010;28;20204;-66
2023/11/04 06:51:09;;;;;;;5.13;2.30;;;7.30;99.90;;;;;;4910473;28;20565;-65
2023/11/04 06:53:35;;;;;;;4.07;2.13;;;7.20;99.90;;;;;;4910258;28;20191;-65
2023/11/04 06:56:00;;;;;;;2.50;1.80;;;7.30;99.90;;;;;;4910628;28;20677;-65
2023/11/04 06:58:29;;;;;;;3.10;1.90;;;7.30;99.90;;;;;;4907350;28;20203;-65
2023/11/04 07:00:55;;;;;;;5.07;2.10;;;7.30;99.90;;;;;;4955431;28;20270;-66
2023/11/04 07:03:21;;;;;;;3.17;1.83;;;7.30;99.90;;;;;;4963333;28;20239;-66
2023/11/04 07:05:47;;;;;;;3.97;2.17;;;7.30;99.90;;;;;;4944512;28;20192;-65
2023/11/04 07:08:16;;;;;;;2.70;1.90;;;7.30;99.90;;;;;;4955818;28;20638;-66
2023/11/04 07:10:43;;;;;;;24.60;16.23;;;7.40;99.90;;;;;;4950846;28;20239;-65
2023/11/04 07:13:13;;;;;;;4.67;2.47;;;7.50;99.90;;;;;;4954602;28;20728;-64
2023/11/04 07:15:45;;;;;;;6.57;2.20;;;7.40;99.90;;;;;;4949687;28;20291;-66
2023/11/04 07:18:15;;;;;;;3.77;1.93;;;7.50;99.90;;;;;;4908597;28;20192;-63
2023/11/04 07:20:41;;;;;;;3.53;2.50;;;7.50;99.90;;;;;;4941861;28;20208;-64
2023/11/04 07:23:14;;;;;;;7.60;4.90;;;7.50;99.90;;;;;;4960885;28;20227;-65
2023/11/04 07:25:39;;;;;;;19.10;9.37;;;7.50;99.90;;;;;;4938157;28;20574;-63
2023/11/04 07:28:06;;;;;;;6.57;2.90;;;7.50;99.90;;;;;;4952640;28;20185;-65
2023/11/04 07:30:32;;;;;;;3.33;2.10;;;7.50;99.90;;;;;;4913500;28;20311;-65
2023/11/04 07:32:57;;;;;;;13.77;6.67;;;7.50;99.90;;;;;;4913458;28;20359;-66
2023/11/04 07:35:23;;;;;;;5.63;2.70;;;7.50;99.90;;;;;;4913535;28;20188;-65
2023/11/04 07:37:50;;;;;;;3.77;2.30;;;7.50;99.90;;;;;;4912940;28;20658;-65
2023/11/04 07:40:16;;;;;;;3.47;1.70;;;7.50;99.90;;;;;;4913183;28;20303;-66
2023/11/04 07:42:45;;;;;;;7.80;4.67;;;7.40;99.90;;;;;;4913472;28;20188;-65
2023/11/04 07:45:11;;;;;;;4.10;2.60;;;7.40;99.90;;;;;;4912839;28;20658;-66
2023/11/04 07:47:41;;;;;;;3.50;3.00;;;7.40;99.90;;;;;;4913185;28;20679;-66
2023/11/04 07:50:08;;;;;;;4.47;2.70;;;7.50;99.90;;;;;;4912995;28;20215;-65
2023/11/04 07:52:34;;;;;;;11.40;7.50;;;7.60;99.90;;;;;;4913140;28;20597;-65
2023/11/04 07:54:59;;;;;;;1.80;1.50;;;7.50;99.90;;;;;;4912712;28;20184;-65
2023/11/04 07:57:25;;;;;;;2.90;1.80;;;7.50;99.90;;;;;;4912823;28;20234;-66
2023/11/04 07:59:51;;;;;;;2.10;1.50;;;7.60;99.90;;;;;;4927624;28;20217;-66
2023/11/04 08:02:16;;;;;;;2.40;1.57;;;7.60;99.90;;;;;;4930925;28;20203;-64
2023/11/04 08:04:42;;;;;;;2.87;1.50;;;7.50;99.90;;;;;;4912318;28;20204;-65
2023/11/04 08:07:09;;;;;;;2.40;1.50;;;7.50;99.90;;;;;;4912892;28;20524;-66
2023/11/04 08:09:34;;;;;;;4.60;1.50;;;7.60;99.90;;;;;;4912488;28;20776;-66
2023/11/04 08:12:00;;;;;;;3.03;1.80;;;7.60;99.90;;;;;;4912728;28;20270;-66
2023/11/04 08:14:26;;;;;;;4.23;2.10;;;7.50;99.90;;;;;;4912307;28;20215;-64
2023/11/04 08:16:51;;;;;;;4.30;2.70;;;7.60;99.90;;;;;;4912823;28;20325;-66
2023/11/04 08:19:17;;;;;;;2.30;1.60;;;7.50;99.90;;;;;;4912484;28;20239;-66
2023/11/04 08:21:43;;;;;;;2.40;1.80;;;7.50;99.90;;;;;;4912420;28;20199;-66
2023/11/04 08:24:08;;;;;;;2.83;1.33;;;7.50;99.90;;;;;;4912132;28;20222;-66
2023/11/04 08:26:38;;;;;;;2.10;1.50;;;7.50;99.90;;;;;;4912354;28;20562;-65
2023/11/04 08:29:05;;;;;;;3.80;1.30;;;7.60;99.90;;;;;;4912269;28;20653;-66
2023/11/04 08:31:30;;;;;;;1.70;1.20;;;7.60;99.90;;;;;;4945485;28;20191;-64
2023/11/04 08:33:56;;;;;;;2.17;1.33;;;7.60;99.90;;;;;;4911375;28;20192;-66
2023/11/04 08:36:22;;;;;;;3.17;1.73;;;7.70;99.90;;;;;;4911190;28;20735;-66
2023/11/04 08:38:47;;;;;;;4.43;3.10;;;7.70;99.90;;;;;;4912424;28;20599;-64
2023/11/04 08:41:13;;;;;;;2.57;1.30;;;7.70;99.90;;;;;;4906217;28;20203;-65
2023/11/04 08:43:38;;;;;;;4.77;2.07;;;7.60;99.90;;;;;;4910461;28;20242;-65
2023/11/04 08:46:05;;;;;;;4.10;1.80;;;7.70;99.90;;;;;;4904541;28;20180;-65
2023/11/04 08:48:31;;;;;;;9.20;6.07;;;7.70;99.90;;;;;;4912001;28;20215;-64
2023/11/04 08:50:56;;;;;;;8.97;6.27;;;7.70;99.90;;;;;;4912002;28;20235;-66
2023/11/04 08:53:22;;;;;;;13.13;7.40;;;7.70;99.90;;;;;;4912006;28;20310;-66
2023/11/04 08:55:47;;;;;;;4.83;2.97;;;7.70;99.90;;;;;;4904022;28;20219;-64
2023/11/04 08:58:13;;;;;;;4.53;2.20;;;7.70;99.90;;;;;;4912126;28;20230;-65
2023/11/04 09:00:39;;;;;;;7.07;4.70;;;7.70;99.90;;;;;;4911985;28;20211;-65
2023/11/04 09:03:04;;;;;;;7.00;1.77;;;7.80;99.90;;;;;;4911845;28;20192;-64
2023/11/04 09:05:30;;;;;;;4.67;1.80;;;7.70;99.90;;;;;;4911523;28;20291;-66
2023/11/04 09:07:55;;;;;;;4.63;1.50;;;7.80;99.90;;;;;;4911985;28;20192;-65
2023/11/04 09:10:21;;;;;;;3.30;1.87;;;7.70;99.90;;;;;;4911934;28;20238;-66
2023/11/04 09:12:47;;;;;;;2.57;1.30;;;7.80;99.90;;;;;;4911708;28;20271;-64
2023/11/04 09:15:13;;;;;;;1.83;1.10;;;7.90;99.90;;;;;;4911494;28;20184;-65
2023/11/04 09:17:38;;;;;;;6.37;2.80;;;7.90;99.90;;;;;;4912064;28;20755;-66
2023/11/04 09:20:05;;;;;;;2.97;1.33;;;8.10;99.90;;;;;;4910352;28;20253;-65
2023/11/04 09:22:32;;;;;;;7.60;1.80;;;8.10;99.90;;;;;;4911356;28;20238;-64
2023/11/04 09:24:57;;;;;;;2.40;1.30;;;8.10;99.90;;;;;;4911327;28;20763;-66
2023/11/04 09:27:24;;;;;;;2.23;1.20;;;8.10;99.90;;;;;;4911604;28;20203;-65
2023/11/04 09:29:49;;;;;;;3.57;1.13;;;8.20;99.90;;;;;;4910962;28;20230;-65
2023/11/04 09:32:17;;;;;;;2.17;1.33;;;8.20;99.90;;;;;;4911621;28;20669;-64
2023/11/04 09:34:43;;;;;;;3.33;1.07;;;8.20;99.90;;;;;;4911157;28;20222;-66
2023/11/04 09:37:09;;;;;;;3.03;1.13;;;8.30;99.90;;;;;;4911141;28;20203;-66
2023/11/04 09:39:34;;;;;;;4.73;1.10;;;8.40;99.90;;;;;;4909975;28;20207;-65
2023/11/04 09:42:00;;;;;;;2.93;1.30;;;8.50;99.90;;;;;;4911565;28;20231;-65
2023/11/04 09:44:26;;;;;;;3.43;1.10;;;8.50;99.90;;;;;;4910820;28;20274;-65
2023/11/04 09:46:51;;;;;;;1.87;1.10;;;8.60;99.90;;;;;;4911389;28;20184;-64
2023/11/04 09:49:18;;;;;;;4.03;1.30;;;8.60;99.90;;;;;;4911099;28;20266;-66
2023/11/04 09:51:44;;;;;;;2.63;1.20;;;8.60;99.90;;;;;;4911148;28;20239;-64
2023/11/04 09:54:13;;;;;;;2.93;1.03;;;8.60;99.90;;;;;;4903227;28;20183;-66
2023/11/04 09:56:39;;;;;;;3.37;1.00;;;8.60;99.90;;;;;;4911224;28;20246;-66
2023/11/04 09:59:08;;;;;;;1.53;0.90;;;8.70;99.90;;;;;;4911103;28;20276;-66
2023/11/04 10:01:33;;;;;;;5.20;1.47;;;8.80;99.90;;;;;;4911075;28;20245;-67
2023/11/04 10:03:59;;;;;;;2.93;1.20;;;8.80;99.90;;;;;;4910974;28;20578;-65
2023/11/04 10:06:25;;;;;;;1.97;0.90;;;8.80;99.90;;;;;;4903373;28;20184;-66
2023/11/04 10:08:51;;;;;;;4.23;1.10;;;8.70;99.90;;;;;;4911094;28;20782;-65
2023/11/04 10:11:17;;;;;;;2.03;1.07;;;8.80;99.90;;;;;;4910941;28;20180;-67
2023/11/04 10:13:43;;;;;;;19.60;7.53;;;9.00;99.90;;;;;;4910646;28;20246;-64
2023/11/04 10:16:09;;;;;;;5.10;1.70;;;9.00;99.90;;;;;;4910953;28;20188;-65
2023/11/04 10:18:37;;;;;;;5.03;1.47;;;9.00;99.90;;;;;;4910961;28;20176;-66
2023/11/04 10:21:03;;;;;;;2.40;1.30;;;9.10;99.90;;;;;;4910908;28;20270;-66
2023/11/04 10:23:30;;;;;;;2.00;1.03;;;9.20;99.90;;;;;;4910338;28;20199;-65
2023/11/04 10:25:59;;;;;;;2.43;1.20;;;9.20;99.90;;;;;;4910196;28;20176;-65
2023/11/04 10:28:25;;;;;;;2.17;1.20;;;9.30;99.90;;;;;;4910520;28;20184;-66
2023/11/04 10:31:00;;;;;;;2.83;1.17;;;9.30;99.90;;;;;;4910152;28;20252;-66
2023/11/04 10:33:27;;;;;;;2.23;0.70;;;9.50;99.90;;;;;;4910516;28;20602;-63
2023/11/04 10:35:54;;;;;;;2.47;1.00;;;9.40;99.90;;;;;;4910783;28;20183;-64
2023/11/04 10:38:22;;;;;;;3.47;1.20;;;9.50;99.90;;;;;;4902766;28;20211;-63
2023/11/04 10:40:49;;;;;;;2.20;0.97;;;9.40;99.90;;;;;;4910478;28;20566;-66
2023/11/04 10:43:20;;;;;;;3.90;1.27;;;9.40;99.90;;;;;;4910185;28;20266;-64
2023/11/04 10:46:02;;;;;;;3.17;1.23;;;9.40;99.90;;;;;;4910430;28;20658;-64
2023/11/04 10:48:50;;;;;;;2.47;0.90;;;9.40;99.90;;;;;;4910393;28;20210;-65
2023/11/04 10:51:22;;;;;;;3.17;1.10;;;9.30;99.90;;;;;;4910538;28;20207;-66
2023/11/04 10:53:54;;;;;;;1.93;0.90;;;9.30;99.90;;;;;;4910193;28;20267;-65
2023/11/04 10:56:32;;;;;;;1.37;0.90;;;9.40;99.90;;;;;;4910420;28;20677;-65
2023/11/04 10:59:02;;;;;;;3.40;1.03;;;9.30;99.90;;;;;;4913788;28;20218;-66
2023/11/04 11:01:30;;;;;;;1.83;0.90;;;9.30;99.90;;;;;;4913600;28;20278;-65
2023/11/04 11:03:55;;;;;;;4.27;1.43;;;9.20;99.90;;;;;;4909470;28;20213;-66
2023/11/04 11:06:22;;;;;;;2.60;0.80;;;9.20;99.90;;;;;;4909820;28;20421;-65
2023/11/04 11:08:48;;;;;;;3.07;0.80;;;9.20;99.90;;;;;;4913368;28;20646;-65
2023/11/04 11:11:21;;;;;;;2.87;1.23;;;9.20;99.90;;;;;;4913657;28;20184;-65
2023/11/04 11:13:52;;;;;;;2.50;0.73;;;9.20;99.90;;;;;;4913352;28;20594;-65
2023/11/04 11:16:18;;;;;;;2.83;0.80;;;9.20;99.90;;;;;;4913633;28;20198;-64
2023/11/04 11:18:44;;;;;;;2.57;0.83;;;9.20;99.90;;;;;;4913143;28;20196;-64
2023/11/04 11:21:11;;;;;;;2.00;0.60;;;9.30;99.90;;;;;;4913770;28;20192;-65
2023/11/04 11:23:38;;;;;;;3.33;0.80;;;9.40;99.90;;;;;;4913152;28;20184;-66
2023/11/04 11:26:05;;;;;;;1.30;0.80;;;9.40;99.90;;;;;;4913512;28;20184;-62
2023/11/04 11:28:37;;;;;;;6.97;0.93;;;9.40;99.90;;;;;;4908952;28;20846;-66
2023/11/04 11:31:03;;;;;;;1.83;0.67;;;9.40;99.90;;;;;;4913318;28;20180;-66
2023/11/04 11:33:30;;;;;;;3.23;0.80;;;9.50;99.90;;;;;;4912986;28;20273;-65
2023/11/04 11:36:07;;;;;;;1.83;0.77;;;9.30;99.90;;;;;;4913183;28;20183;-65
2023/11/04 11:38:34;;;;;;;2.53;0.80;;;9.30;99.90;;;;;;4905330;28;20186;-66
2023/11/04 11:41:08;;;;;;;4.93;0.63;;;9.30;99.90;;;;;;4913083;28;20211;-65
2023/11/04 11:43:35;;;;;;;2.73;1.50;;;9.40;99.90;;;;;;4912580;28;20191;-65
2023/11/04 11:46:04;;;;;;;3.70;0.80;;;9.50;99.90;;;;;;4913537;28;20223;-67
2023/11/04 11:48:36;;;;;;;2.37;0.80;;;9.50;99.90;;;;;;4912747;28;20222;-65
2023/11/04 11:51:01;;;;;;;1.03;0.70;;;9.50;99.90;;;;;;4913102;28;20604;-66
2023/11/04 11:53:30;;;;;;;3.50;1.07;;;9.60;99.90;;;;;;4912561;28;20180;-61
2023/11/04 11:55:57;;;;;;;2.10;0.87;;;9.50;99.90;;;;;;4913046;28;20692;-63
2023/11/04 11:58:25;;;;;;;2.20;0.63;;;9.40;99.90;;;;;;4913325;28;20190;-66
2023/11/04 12:00:50;;;;;;;4.50;1.63;;;9.40;99.90;;;;;;4912825;28;20211;-66
2023/11/04 12:03:16;;;;;;;3.80;0.83;;;9.40;99.90;;;;;;4912821;28;20200;-64
2023/11/04 12:05:44;;;;;;;4.87;1.00;;;9.30;99.90;;;;;;4904593;28;20314;-65
2023/11/04 12:08:10;;;;;;;2.27;0.70;;;9.40;99.90;;;;;;4911816;28;20633;-66
2023/11/04 12:10:35;;;;;;;2.70;0.80;;;9.40;99.90;;;;;;4912441;28;20235;-65
2023/11/04 12:13:01;;;;;;;1.73;0.67;;;9.40;99.90;;;;;;4912875;28;20192;-65
2023/11/04 12:15:27;;;;;;;3.33;0.90;;;9.40;99.90;;;;;;4912421;28;20227;-65
2023/11/04 12:17:57;;;;;;;1.30;0.90;;;9.40;99.90;;;;;;4912667;28;20199;-64
2023/11/04 12:20:26;;;;;;;1.50;0.80;;;9.20;99.90;;;;;;4904658;28;20282;-65
2023/11/04 12:22:54;;;;;;;4.87;1.00;;;9.20;99.90;;;;;;4912375;28;20190;-66
2023/11/04 12:25:20;;;;;;;1.10;0.60;;;9.20;99.90;;;;;;4912614;28;20200;-65
2023/11/04 12:27:46;;;;;;;4.57;1.77;;;9.20;99.90;;;;;;4912382;28;20196;-65
2023/11/04 12:30:15;;;;;;;1.07;0.57;;;9.20;99.90;;;;;;4912614;28;20604;-64
2023/11/04 12:32:41;;;;;;;1.70;0.67;;;9.20;99.90;;;;;;4912338;28;20569;-64
2023/11/04 12:35:08;;;;;;;3.73;1.10;;;9.20;99.90;;;;;;4911983;28;20184;-64
2023/11/04 12:37:34;;;;;;;5.17;0.90;;;9.20;99.90;;;;;;4912142;28;20188;-64
2023/11/04 12:40:00;;;;;;;4.33;0.60;;;9.10;99.90;;;;;;4912220;28;20299;-64
2023/11/04 12:42:26;;;;;;;3.13;0.80;;;9.20;99.90;;;;;;4912165;28;20644;-64
2023/11/04 12:44:57;;;;;;;3.67;0.90;;;9.20;99.90;;;;;;4911620;28;20216;-64
2023/11/04 12:47:26;;;;;;;3.60;0.70;;;9.10;99.90;;;;;;4912253;28;20458;-64
2023/11/04 12:49:52;;;;;;;5.57;1.20;;;9.00;99.90;;;;;;4912244;28;20234;-64
2023/11/04 12:52:19;;;;;;;2.20;0.90;;;9.10;99.90;;;;;;4911869;28;20188;-64